createdAt,value
2023-02-19T00:01:12.619Z,38.6
2023-02-19T00:03:12.296Z,29.6
2023-02-19T00:05:12.013Z,34.9
2023-02-19T00:07:15.017Z,37.4
2023-02-19T00:09:14.711Z,24.2
2023-02-19T00:11:14.322Z,21.7
2023-02-19T00:13:29.557Z,23.8
2023-02-19T00:15:29.209Z,30.8
2023-02-19T00:17:28.913Z,41
2023-02-19T00:19:31.955Z,37.4
2023-02-19T00:21:31.628Z,24.8
2023-02-19T00:27:30.622Z,23.9
2023-02-19T00:29:30.270Z,30.6
2023-02-19T00:33:33.021Z,28.4
2023-02-19T00:35:32.697Z,24.5
2023-02-19T00:37:32.349Z,27.7
2023-02-19T00:39:32.007Z,40.7
2023-02-19T00:41:31.715Z,37.1
2023-02-19T00:43:31.394Z,24.7
2023-02-19T00:45:31.058Z,34.2
2023-02-19T00:47:34.160Z,25.9
2023-02-19T00:49:33.776Z,29.7
2023-02-19T00:51:33.438Z,15.7
2023-02-19T00:53:33.087Z,18.7
2023-02-19T00:55:32.781Z,7.2
2023-02-19T00:57:32.417Z,18
2023-02-19T00:59:32.088Z,12.6
2023-02-19T01:01:35.224Z,19.4
2023-02-19T01:03:34.821Z,12.2
2023-02-19T01:05:34.523Z,8.8
2023-02-19T01:06:36.092Z,24.5
2023-02-19T01:08:35.746Z,21.4
2023-02-19T01:10:35.419Z,15.5
2023-02-19T01:12:35.061Z,27.9
2023-02-19T01:14:38.148Z,14.6
2023-02-19T01:16:37.909Z,10.9
2023-02-19T01:18:37.485Z,15.8
2023-02-19T01:20:37.180Z,8.8
2023-02-19T01:22:36.833Z,18.4
2023-02-19T01:26:36.151Z,16
2023-02-19T01:28:39.268Z,27.3
2023-02-19T01:40:37.265Z,18.7
2023-02-19T01:44:40.026Z,16.6
2023-02-19T01:46:39.762Z,11.9
2023-02-19T01:48:39.352Z,13.4
2023-02-19T01:50:38.996Z,12.9
2023-02-19T01:52:38.666Z,17.7
2023-02-19T01:54:38.346Z,10.6
2023-02-19T01:56:41.439Z,10.3
2023-02-19T01:58:41.116Z,16
2023-02-19T02:01:42.349Z,20.2
2023-02-19T02:03:42.006Z,18.2
2023-02-19T02:05:41.689Z,10.8
2023-02-19T02:07:41.357Z,7.3
2023-02-19T02:09:44.429Z,12.9
2023-02-19T02:11:44.099Z,25.3
2023-02-19T02:17:43.125Z,10.8
2023-02-19T02:19:42.805Z,12.2
2023-02-19T02:25:45.283Z,17.4
2023-02-19T02:27:44.981Z,17.8
2023-02-19T02:29:44.641Z,16.6
2023-02-19T02:31:44.515Z,26.3
2023-02-19T02:33:43.991Z,13.6
2023-02-19T02:35:43.715Z,14.3
2023-02-19T02:37:46.792Z,15.5
2023-02-19T02:39:46.460Z,11.8
2023-02-19T02:41:46.131Z,12.8
2023-02-19T02:43:45.809Z,18.2
2023-02-19T02:45:45.497Z,14.5
2023-02-19T02:49:44.823Z,18.2
2023-02-19T02:51:47.906Z,17.7
2023-02-19T02:55:47.240Z,20.9
2023-02-19T02:56:48.782Z,16
2023-02-19T02:58:48.459Z,23.6
2023-02-19T03:00:48.190Z,14
2023-02-19T03:02:47.807Z,9.8
2023-02-19T03:04:50.893Z,15.4
2023-02-19T03:06:50.578Z,12.5
2023-02-19T03:08:50.245Z,12.9
2023-02-19T03:10:49.935Z,14.6
2023-02-19T03:12:49.605Z,11.3
2023-02-19T03:14:49.320Z,13.3
2023-02-19T03:18:52.060Z,12.4
2023-02-19T03:20:51.693Z,13.3
2023-02-19T03:22:51.371Z,15.5
2023-02-19T03:24:51.042Z,15.2
2023-02-19T03:30:50.041Z,14.9
2023-02-19T03:32:53.086Z,10.9
2023-02-19T03:36:52.445Z,5
2023-02-19T03:38:52.155Z,7.9
2023-02-19T03:40:51.780Z,17.9
2023-02-19T03:42:51.507Z,6
2023-02-19T03:44:51.179Z,9.4
2023-02-19T03:46:54.284Z,19.9
2023-02-19T03:50:53.644Z,10.3
2023-02-19T03:53:15.489Z,9.5
2023-02-19T03:55:15.178Z,10.6
2023-02-19T03:57:14.860Z,19
2023-02-19T04:01:17.617Z,23.4
2023-02-19T04:03:17.279Z,13
2023-02-19T04:05:16.940Z,12.5
2023-02-19T04:07:16.614Z,12.5
2023-02-19T04:09:16.301Z,11.8
2023-02-19T04:11:15.966Z,11.9
2023-02-19T04:13:19.036Z,11.7
2023-02-19T04:15:18.733Z,11
2023-02-19T04:19:19.587Z,9.5
2023-02-19T04:21:19.286Z,16.4
2023-02-19T04:23:18.949Z,20.7
2023-02-19T04:25:18.643Z,14.2
2023-02-19T04:27:21.711Z,10.8
2023-02-19T04:29:21.421Z,16.8
2023-02-19T04:33:20.764Z,9.2
2023-02-19T04:35:20.457Z,14.8
2023-02-19T04:37:20.124Z,11.8
2023-02-19T04:39:19.826Z,13.4
2023-02-19T04:41:22.885Z,9.8
2023-02-19T04:43:22.577Z,13.1
2023-02-19T04:45:22.268Z,16
2023-02-19T04:46:23.811Z,16.7
2023-02-19T04:50:23.195Z,10.1
2023-02-19T04:52:22.867Z,10.6
2023-02-19T05:00:25.005Z,13.7
2023-02-19T05:02:24.682Z,23.3
2023-02-19T05:04:24.447Z,13.6
2023-02-19T05:06:24.031Z,13.5
2023-02-19T05:08:27.154Z,10.9
2023-02-19T05:10:26.858Z,10.4
2023-02-19T05:14:26.202Z,13.8
2023-02-19T05:18:25.594Z,13.5
2023-02-19T05:20:25.264Z,9.8
2023-02-19T05:22:28.323Z,15.2
2023-02-19T05:24:28.044Z,10.1
2023-02-19T05:28:27.394Z,12.6
2023-02-19T05:30:27.095Z,12.1
2023-02-19T05:32:26.769Z,13.4
2023-02-19T05:34:26.456Z,11.3
2023-02-19T05:36:29.563Z,34.9
2023-02-19T05:38:29.226Z,13.1
2023-02-19T05:40:28.905Z,6.1
2023-02-19T05:41:30.454Z,5.8
2023-02-19T05:43:30.133Z,17.2
2023-02-19T05:45:29.812Z,11.7
2023-02-19T05:47:29.482Z,10.8
2023-02-19T05:49:32.599Z,20.5
2023-02-19T05:51:32.280Z,11.7
2023-02-19T05:53:31.973Z,15
2023-02-19T05:55:31.634Z,10
2023-02-19T06:01:30.704Z,10.2
2023-02-19T06:05:33.483Z,9.9
2023-02-19T06:07:33.153Z,8.3
2023-02-19T06:09:32.848Z,21.6
2023-02-19T06:11:32.551Z,13.4
2023-02-19T06:13:32.245Z,11.3
2023-02-19T06:15:31.973Z,10.9
2023-02-19T06:21:34.431Z,15.8
2023-02-19T06:27:33.492Z,6
2023-02-19T06:29:33.186Z,11.6
2023-02-19T06:31:36.403Z,13.5
2023-02-19T06:35:35.652Z,8.9
2023-02-19T06:36:37.187Z,11.9
2023-02-19T06:38:36.925Z,7.8
2023-02-19T06:40:36.585Z,5.7
2023-02-19T06:42:36.276Z,4.4
2023-02-19T06:44:39.370Z,12.9
2023-02-19T06:46:39.102Z,6.1
2023-02-19T06:48:38.742Z,8.5
2023-02-19T06:56:37.496Z,4.5
2023-02-19T06:58:40.580Z,7.8
2023-02-19T07:04:39.664Z,3.5
2023-02-19T07:12:41.934Z,10.2
2023-02-19T07:14:41.607Z,7.1
2023-02-19T07:18:40.996Z,8.8
2023-02-19T07:20:40.719Z,13.6
2023-02-19T07:26:43.219Z,11.1
2023-02-19T07:28:42.914Z,6.9
2023-02-19T07:30:42.626Z,8.9
2023-02-19T07:33:10.525Z,14.2
2023-02-19T07:35:09.829Z,8.3
2023-02-19T07:39:12.627Z,9.8
2023-02-19T07:41:12.593Z,14.1
2023-02-19T07:43:11.987Z,6.6
2023-02-19T07:45:11.700Z,12.7
2023-02-19T07:47:11.414Z,7.4
2023-02-19T07:49:11.097Z,7.7
2023-02-19T07:51:11.180Z,10.7
2023-02-19T07:53:13.879Z,12.6
2023-02-19T07:55:13.587Z,11.5
2023-02-19T07:57:13.270Z,11.1
2023-02-19T07:59:12.998Z,11.8
2023-02-19T08:01:13.157Z,5.5
2023-02-19T08:03:12.442Z,10.3
2023-02-19T08:05:12.077Z,9.7
2023-02-19T08:07:15.184Z,9.5
2023-02-19T08:09:14.862Z,3.8
2023-02-19T08:11:14.527Z,15.4
2023-02-19T08:13:14.219Z,7.6
2023-02-19T08:15:13.954Z,9.9
2023-02-19T08:17:13.683Z,3.8
2023-02-19T08:19:13.326Z,9.4
2023-02-19T08:25:15.815Z,6.1
2023-02-19T08:28:17.044Z,7.3
2023-02-19T08:30:16.767Z,7.1
2023-02-19T08:32:16.552Z,9.4
2023-02-19T08:34:19.562Z,7.1
2023-02-19T08:36:19.275Z,9.2
2023-02-19T08:38:18.958Z,12.5
2023-02-19T08:40:18.663Z,13.6
2023-02-19T08:42:18.383Z,7.6
2023-02-19T08:44:18.044Z,4.2
2023-02-19T08:46:17.820Z,9
2023-02-19T08:48:20.865Z,9.6
2023-02-19T08:50:20.598Z,7.4
2023-02-19T08:54:19.977Z,5.8
2023-02-19T08:58:19.369Z,3.9
2023-02-19T09:00:19.068Z,7.9
2023-02-19T09:02:22.213Z,3.7
2023-02-19T09:04:22.029Z,5.2
2023-02-19T09:06:21.650Z,9.4
2023-02-19T09:14:20.439Z,6.9
2023-02-19T09:16:23.549Z,5.6
2023-02-19T09:18:23.245Z,8.5
2023-02-19T09:20:23.068Z,5.2
2023-02-19T09:21:24.504Z,5.9
2023-02-19T09:23:24.266Z,5.8
2023-02-19T09:25:23.880Z,3.8
2023-02-19T09:27:23.589Z,5
2023-02-19T09:29:26.686Z,3.4
2023-02-19T09:35:25.801Z,5.4
2023-02-19T09:37:25.497Z,7.9
2023-02-19T09:39:26.954Z,5.7
2023-02-19T09:43:28.007Z,3.9
2023-02-19T09:45:27.780Z,4.3
2023-02-19T09:47:27.535Z,3.6
2023-02-19T09:49:27.217Z,5.9
2023-02-19T09:53:26.616Z,4.4
2023-02-19T09:55:26.435Z,4.3
2023-02-19T09:57:29.501Z,5.8
2023-02-19T09:59:29.326Z,5.6
2023-02-19T10:01:29.098Z,2.6
2023-02-19T10:03:30.332Z,3.4
2023-02-19T10:09:29.402Z,2.2
2023-02-19T10:11:32.513Z,3.3
2023-02-19T10:13:32.311Z,3.5
2023-02-19T10:15:32.005Z,3.4
2023-02-19T10:16:33.570Z,5.9
2023-02-19T10:18:33.375Z,2.7
2023-02-19T10:20:33.118Z,4.1
2023-02-19T10:22:32.929Z,3.5
2023-02-19T10:24:38.398Z,2.8
2023-02-19T10:26:35.738Z,3.3
2023-02-19T10:32:34.927Z,2.8
2023-02-19T10:36:34.382Z,2.9
2023-02-19T10:38:37.501Z,4
2023-02-19T10:40:37.208Z,3.7
2023-02-19T10:44:36.748Z,4.1
2023-02-19T10:46:36.527Z,9.3
2023-02-19T10:48:36.183Z,2.9
2023-02-19T10:50:35.877Z,2.3
2023-02-19T10:52:39.072Z,4
2023-02-19T10:54:38.799Z,5.1
2023-02-19T10:56:38.599Z,5.5
2023-02-19T10:58:38.306Z,2.5
2023-02-19T11:00:38.034Z,3
2023-02-19T11:08:40.256Z,2.9
2023-02-19T11:10:40.004Z,2.6
2023-02-19T11:12:59.244Z,3.1
2023-02-19T11:14:58.970Z,8.2
2023-02-19T11:19:01.741Z,7.1
2023-02-19T11:23:01.159Z,2.3
2023-02-19T11:25:00.836Z,2.2
2023-02-19T11:27:00.554Z,2.3
2023-02-19T11:29:00.258Z,3.4
2023-02-19T11:30:59.983Z,2.4
2023-02-19T11:33:03.056Z,2.8
2023-02-19T11:35:02.729Z,3.2
2023-02-19T11:37:02.457Z,3.1
2023-02-19T11:41:01.840Z,2
2023-02-19T11:43:01.527Z,3.8
2023-02-19T11:45:01.208Z,3.7
2023-02-19T11:47:04.295Z,3.3
2023-02-19T11:49:04.020Z,1.6
2023-02-19T11:51:03.731Z,2.2
2023-02-19T11:53:03.437Z,2.3
2023-02-19T11:55:03.107Z,3.4
2023-02-19T11:57:02.780Z,2.4
2023-02-19T11:59:02.486Z,3.5
2023-02-19T12:01:05.598Z,2
2023-02-19T12:03:05.290Z,3.3
2023-02-19T12:05:05.040Z,6.7
2023-02-19T12:06:06.550Z,5.3
2023-02-19T12:10:05.992Z,3.1
2023-02-19T12:12:05.640Z,2.4
2023-02-19T12:14:08.762Z,3.3
2023-02-19T12:16:08.617Z,8.1
2023-02-19T12:18:08.340Z,2.6
2023-02-19T12:20:08.031Z,3.2
2023-02-19T12:22:07.766Z,4.8
2023-02-19T12:24:07.470Z,4
2023-02-19T12:26:07.169Z,4.1
2023-02-19T12:28:10.266Z,3.4
2023-02-19T12:30:10.018Z,6.2
2023-02-19T12:32:09.832Z,4.4
2023-02-19T12:34:09.486Z,3.2
2023-02-19T12:36:09.601Z,3.3
2023-02-19T12:38:08.910Z,3.4
2023-02-19T12:40:08.606Z,3.3
2023-02-19T12:42:11.687Z,4.9
2023-02-19T12:46:11.358Z,2.6
2023-02-19T12:48:10.812Z,3
2023-02-19T12:50:10.522Z,3.8
2023-02-19T12:52:10.190Z,3
2023-02-19T12:54:09.938Z,2.7
2023-02-19T13:00:12.412Z,3.3
2023-02-19T13:01:14.020Z,2.9
2023-02-19T13:03:13.837Z,3.7
2023-02-19T13:05:13.541Z,3
2023-02-19T13:07:13.242Z,3.5
2023-02-19T13:09:16.369Z,4
2023-02-19T13:17:15.209Z,5.8
2023-02-19T13:21:14.564Z,3.1
2023-02-19T13:23:17.715Z,3.8
2023-02-19T13:25:17.385Z,2.4
2023-02-19T13:27:17.132Z,5.5
2023-02-19T13:29:16.922Z,2.9
2023-02-19T13:31:16.822Z,3.9
2023-02-19T13:33:16.317Z,5.5
2023-02-19T13:35:16.039Z,3.2
2023-02-19T13:37:19.140Z,2.5
2023-02-19T13:39:18.885Z,2.8
2023-02-19T13:43:18.278Z,7.4
2023-02-19T13:47:17.786Z,3.8
2023-02-19T13:49:17.483Z,2.8
2023-02-19T13:51:20.623Z,2.9
2023-02-19T13:53:20.310Z,2
2023-02-19T13:55:19.980Z,2.1
2023-02-19T13:56:21.540Z,2.2
2023-02-19T13:58:21.267Z,4.2
2023-02-19T14:08:23.210Z,3.5
2023-02-19T14:10:22.920Z,3.1
2023-02-19T14:14:22.290Z,3
2023-02-19T14:16:22.010Z,3.6
2023-02-19T14:18:25.130Z,2.1
2023-02-19T14:20:24.830Z,1.6
2023-02-19T14:22:24.516Z,2.5
2023-02-19T14:24:24.323Z,4.4
2023-02-19T14:26:23.952Z,2.9
2023-02-19T14:28:23.644Z,2.8
2023-02-19T14:30:23.388Z,1.7
2023-02-19T14:32:26.420Z,9
2023-02-19T14:34:26.138Z,6.9
2023-02-19T14:36:25.894Z,5.9
2023-02-19T14:38:25.526Z,3.4
2023-02-19T14:40:25.239Z,2.4
2023-02-19T14:42:24.948Z,5.4
2023-02-19T14:46:27.813Z,3.7
2023-02-19T14:48:27.467Z,4.8
2023-02-19T14:50:27.158Z,2.7
2023-02-19T14:52:48.799Z,2
2023-02-19T14:54:48.561Z,6.7
2023-02-19T14:56:48.232Z,2.2
2023-02-19T14:58:51.312Z,7.6
2023-02-19T15:00:51.002Z,6.7
2023-02-19T15:02:50.721Z,9.1
2023-02-19T15:10:49.498Z,1.6
2023-02-19T15:14:52.290Z,6.5
2023-02-19T15:16:52.009Z,6.4
2023-02-19T15:18:51.730Z,7.9
2023-02-19T15:20:51.393Z,21.2
2023-02-19T15:22:51.092Z,5.7
2023-02-19T15:24:50.779Z,9.7
2023-02-19T15:26:53.903Z,10.8
2023-02-19T15:30:53.339Z,4.5
2023-02-19T15:32:53.019Z,2.7
2023-02-19T15:34:52.694Z,1.7
2023-02-19T15:36:52.417Z,1.9
2023-02-19T15:38:52.139Z,1.6
2023-02-19T15:40:55.207Z,1.9
2023-02-19T15:42:54.916Z,2.2
2023-02-19T15:44:54.607Z,1.3
2023-02-19T15:47:57.839Z,1.6
2023-02-19T15:49:57.498Z,1.9
2023-02-19T15:51:57.187Z,2
2023-02-19T15:54:00.298Z,2.3
2023-02-19T15:56:00.006Z,1.2
2023-02-19T15:57:59.691Z,1.1
2023-02-19T15:59:59.443Z,1.4
2023-02-19T16:01:59.144Z,2.1
2023-02-19T16:03:58.779Z,1.1
2023-02-19T16:05:58.510Z,0.9
2023-02-19T16:10:01.319Z,1.5
2023-02-19T16:12:01.010Z,2.1
2023-02-19T16:14:00.723Z,1.6
2023-02-19T16:16:00.539Z,2.2
2023-02-19T16:18:00.120Z,6.7
2023-02-19T16:19:59.942Z,2.2
2023-02-19T16:22:02.906Z,2.2
2023-02-19T16:24:02.620Z,2.5
2023-02-19T16:26:02.336Z,2.4
2023-02-19T16:28:02.028Z,1.8
2023-02-19T16:30:01.858Z,1.1
2023-02-19T16:41:05.298Z,4.8
2023-02-19T16:43:05.004Z,3.9
2023-02-19T16:45:04.722Z,2
2023-02-19T16:49:07.550Z,3.2
2023-02-19T16:53:06.946Z,2.3
2023-02-19T16:55:06.662Z,2
2023-02-19T16:57:06.343Z,2.1
2023-02-19T17:01:05.789Z,2.7
2023-02-19T17:03:08.907Z,2.3
2023-02-19T17:05:08.586Z,3.5
2023-02-19T17:07:08.292Z,3.6
2023-02-19T17:09:08.012Z,1.9
2023-02-19T17:11:07.733Z,3.5
2023-02-19T17:13:07.405Z,3.4
2023-02-19T17:15:07.126Z,2.3
2023-02-19T17:17:10.333Z,2.3
2023-02-19T17:19:10.062Z,1.8
2023-02-19T17:21:10.291Z,2.4
2023-02-19T17:23:09.523Z,3.2
2023-02-19T17:25:09.287Z,2.3
2023-02-19T17:27:09.002Z,1.9
2023-02-19T17:29:08.713Z,5.5
2023-02-19T17:31:12.122Z,2.8
2023-02-19T17:33:11.511Z,2.3
2023-02-19T17:35:11.220Z,2.6
2023-02-19T17:38:12.447Z,3.5
2023-02-19T17:40:13.899Z,3.5
2023-02-19T17:42:11.848Z,2.1
2023-02-19T17:48:14.339Z,12.5
2023-02-19T17:50:14.056Z,3.6
2023-02-19T17:52:13.743Z,3.1
2023-02-19T17:54:13.438Z,4.8
2023-02-19T17:58:16.205Z,3.5
2023-02-19T18:06:15.127Z,6
2023-02-19T18:10:14.495Z,3.5
2023-02-19T18:12:17.588Z,3.9
2023-02-19T18:14:17.296Z,4
2023-02-19T18:16:16.983Z,5.3
2023-02-19T18:22:16.085Z,6.2
2023-02-19T18:26:18.940Z,4.8
2023-02-19T18:28:18.595Z,3.4
2023-02-19T18:30:18.341Z,2.3
2023-02-19T18:32:33.829Z,2.9
2023-02-19T18:34:33.528Z,5.4
2023-02-19T18:38:36.329Z,4.7
2023-02-19T18:40:35.990Z,3.1
2023-02-19T18:48:34.931Z,3.5
2023-02-19T18:50:34.631Z,7.6
2023-02-19T18:52:37.746Z,4.2
2023-02-19T18:54:37.472Z,8.2
2023-02-19T19:00:36.548Z,9.9
2023-02-19T19:02:48.246Z,4.4
2023-02-19T19:04:36.044Z,5.4
2023-02-19T19:06:39.102Z,4.2
2023-02-19T19:08:38.839Z,4.9
2023-02-19T19:10:38.535Z,4.7
2023-02-19T19:12:38.252Z,5.4
2023-02-19T19:14:38.099Z,4
2023-02-19T19:16:37.699Z,5.2
2023-02-19T19:18:37.506Z,6.4
2023-02-19T19:20:40.623Z,4.2
2023-02-19T19:22:40.326Z,5.4
2023-02-19T19:24:40.021Z,7.6
2023-02-19T19:25:41.581Z,4.6
2023-02-19T19:27:41.308Z,6
2023-02-19T19:29:41.023Z,5.4
2023-02-19T19:31:41.084Z,7
2023-02-19T19:33:44.046Z,8.9
2023-02-19T19:35:43.790Z,5.3
2023-02-19T19:41:43.223Z,6.1
2023-02-19T19:43:42.944Z,4.6
2023-02-19T19:45:42.629Z,8.1
2023-02-19T19:47:45.759Z,5.1
2023-02-19T19:53:45.009Z,5.6
2023-02-19T19:55:44.852Z,6.1
2023-02-19T19:57:44.583Z,5.9
2023-02-19T19:59:44.377Z,4
2023-02-19T20:01:47.622Z,4.4
2023-02-19T20:15:49.593Z,4.4
2023-02-19T20:17:49.380Z,5.9
2023-02-19T20:19:49.105Z,4
2023-02-19T20:20:50.773Z,5
2023-02-19T20:22:50.598Z,6.3
2023-02-19T20:24:50.425Z,6.3
2023-02-19T20:26:50.257Z,5.8
2023-02-19T20:28:53.586Z,7.4
2023-02-19T20:30:53.465Z,6.2
2023-02-19T20:32:53.117Z,3.1
2023-02-19T20:36:52.776Z,9.3
2023-02-19T20:38:52.632Z,5.9
2023-02-19T20:40:52.464Z,8.4
2023-02-19T20:42:55.949Z,3.7
2023-02-19T20:44:55.597Z,7
2023-02-19T20:46:55.421Z,5.2
2023-02-19T20:56:58.037Z,3.5
2023-02-19T20:58:57.855Z,3.8
2023-02-19T21:00:57.711Z,11.3
2023-02-19T21:02:57.554Z,2.6
2023-02-19T21:04:57.272Z,9.2
2023-02-19T21:06:57.111Z,4
2023-02-19T21:11:00.295Z,5.3
2023-02-19T21:13:00.149Z,5.1
2023-02-19T21:15:00.167Z,4.7
2023-02-19T21:26:04.211Z,6.6
2023-02-19T21:28:04.043Z,9
2023-02-19T21:30:03.916Z,5.5
2023-02-19T21:32:03.888Z,6.1
2023-02-19T21:34:05.145Z,6.9
2023-02-19T21:36:04.899Z,8.7
2023-02-19T21:38:08.149Z,5.6
2023-02-19T21:40:07.980Z,9.5
2023-02-19T21:42:07.809Z,8.6
2023-02-19T21:44:07.677Z,4.9
2023-02-19T21:46:07.530Z,6
2023-02-19T21:48:07.380Z,7.9
2023-02-19T21:52:10.513Z,9
2023-02-19T21:54:10.373Z,13.6
2023-02-19T21:56:10.206Z,11
2023-02-19T21:58:10.061Z,9.4
2023-02-19T22:00:09.912Z,11.6
2023-02-19T22:02:09.722Z,9.9
2023-02-19T22:04:09.560Z,7.2
2023-02-19T22:06:13.163Z,8.8
2023-02-19T22:08:12.550Z,10
2023-02-19T22:10:12.399Z,9.2
2023-02-19T22:12:32.130Z,13.4
2023-02-19T22:14:31.913Z,11.5
2023-02-19T22:16:31.754Z,10.6
2023-02-19T22:18:34.963Z,15.6
2023-02-19T22:20:34.803Z,12.5
2023-02-19T22:22:34.647Z,11.1
2023-02-19T22:24:34.477Z,11.6
2023-02-19T22:28:34.160Z,8.8
2023-02-19T22:30:34.063Z,10.8
2023-02-19T22:32:37.450Z,5.6
2023-02-19T22:42:36.465Z,16
2023-02-19T22:44:36.307Z,8.4
2023-02-19T22:46:39.624Z,17.6
2023-02-19T22:48:39.484Z,12.8
2023-02-19T22:50:39.312Z,6.1
2023-02-19T22:52:39.151Z,9.5
2023-02-19T22:54:39.004Z,11.1
2023-02-19T22:58:38.715Z,8.4
2023-02-19T23:02:41.917Z,8
2023-02-19T23:04:41.770Z,7.4
2023-02-19T23:05:43.420Z,11.8
2023-02-19T23:07:43.277Z,13.2
2023-02-19T23:09:43.049Z,13
2023-02-19T23:21:45.565Z,12.4
2023-02-19T23:23:45.432Z,8.8
2023-02-19T23:25:45.274Z,7.9
2023-02-19T23:27:48.599Z,10.9
2023-02-19T23:29:48.343Z,8.2
2023-02-19T23:31:48.312Z,13.3
2023-02-19T23:33:47.916Z,17.7
2023-02-19T23:35:47.769Z,11.3
2023-02-19T23:37:47.593Z,10.1
2023-02-19T23:41:50.684Z,8.5
2023-02-19T23:43:50.526Z,11
2023-02-19T23:49:50.045Z,12
2023-02-19T23:55:53.029Z,6
2023-02-19T23:57:53.491Z,8.6
2023-02-19T23:59:52.723Z,11
